createdAt,value
2022-09-13T00:00:24.251Z,86.35
2022-09-13T00:01:24.304Z,88.27
2022-09-13T00:02:24.330Z,87.36
2022-09-13T00:03:24.229Z,86.45
2022-09-13T00:04:24.235Z,86.85
2022-09-13T00:05:24.202Z,87.87
2022-09-13T00:06:24.210Z,84.22
2022-09-13T00:07:24.198Z,85.44
2022-09-13T00:08:24.164Z,84.73
2022-09-13T00:09:24.170Z,85.80
2022-09-13T00:10:24.201Z,86.71
2022-09-13T00:11:24.230Z,86.71
2022-09-13T00:12:24.131Z,86.71
2022-09-13T00:13:24.126Z,86.31
2022-09-13T00:14:24.122Z,84.79
2022-09-13T00:15:24.106Z,86.61
2022-09-13T00:16:24.090Z,84.99
2022-09-13T00:17:24.089Z,86.51
2022-09-13T00:18:24.066Z,85.60
2022-09-13T00:19:24.062Z,86.31
2022-09-13T00:20:24.042Z,85.30
2022-09-13T00:21:24.046Z,86.21
2022-09-13T00:22:24.036Z,86.21
2022-09-13T00:23:24.059Z,85.90
2022-09-13T00:24:23.991Z,85.39
2022-09-13T00:25:23.999Z,85.60
2022-09-13T00:26:23.983Z,86.82
2022-09-13T00:27:23.996Z,85.39
2022-09-13T00:28:23.960Z,86.31
2022-09-13T00:29:23.952Z,85.70
2022-09-13T00:30:23.941Z,88.53
2022-09-13T00:31:24.000Z,84.19
2022-09-13T00:32:23.927Z,85.10
2022-09-13T00:33:23.901Z,85.60
2022-09-13T00:34:23.899Z,85.80
2022-09-13T00:35:23.888Z,87.32
2022-09-13T00:36:23.875Z,85.90
2022-09-13T00:37:23.890Z,85.19
2022-09-13T00:38:23.853Z,86.41
2022-09-13T00:39:23.865Z,87.73
2022-09-13T00:40:23.897Z,87.79
2022-09-13T00:41:23.824Z,87.08
2022-09-13T00:42:23.825Z,87.18
2022-09-13T00:43:23.804Z,88.74
2022-09-13T00:44:23.798Z,87.88
2022-09-13T00:45:23.866Z,87.22
2022-09-13T00:46:23.777Z,85.80
2022-09-13T00:47:23.781Z,88.13
2022-09-13T00:48:23.776Z,87.82
2022-09-13T00:49:23.735Z,87.93
2022-09-13T00:50:23.729Z,87.52
2022-09-13T00:51:23.729Z,87.32
2022-09-13T00:52:23.741Z,87.42
2022-09-13T00:53:23.698Z,87.22
2022-09-13T00:54:23.672Z,86.91
2022-09-13T00:55:23.683Z,87.62
2022-09-13T00:56:23.648Z,88.43
2022-09-13T00:57:23.664Z,87.73
2022-09-13T00:58:23.658Z,88.53
2022-09-13T00:59:23.633Z,88.74
2022-09-13T01:00:23.621Z,89.45
2022-09-13T01:01:23.652Z,89.14
2022-09-13T01:02:23.925Z,88.53
2022-09-13T01:03:23.590Z,89.54
2022-09-13T01:04:23.578Z,88.74
2022-09-13T01:05:23.574Z,88.64
2022-09-13T01:06:23.550Z,87.52
2022-09-13T01:07:23.558Z,89.14
2022-09-13T01:08:23.545Z,88.64
2022-09-13T01:09:23.521Z,89.85
2022-09-13T01:10:23.515Z,90.05
2022-09-13T01:11:23.505Z,89.85
2022-09-13T01:12:23.503Z,89.54
2022-09-13T01:13:23.491Z,89.75
2022-09-13T01:14:23.475Z,89.95
2022-09-13T01:15:23.470Z,91.47
2022-09-13T01:16:23.471Z,90.56
2022-09-13T01:17:23.449Z,90.86
2022-09-13T01:18:23.439Z,90.56
2022-09-13T01:19:23.427Z,90.05
2022-09-13T01:20:23.402Z,91.37
2022-09-13T01:21:23.405Z,90.76
2022-09-13T01:22:23.393Z,91.16
2022-09-13T01:23:23.388Z,91.97
2022-09-13T01:24:23.366Z,91.97
2022-09-13T01:25:23.354Z,92.28
2022-09-13T01:26:23.346Z,92.38
2022-09-13T01:27:23.346Z,91.77
2022-09-13T01:28:23.319Z,92.58
2022-09-13T01:29:23.320Z,92.38
2022-09-13T01:30:23.302Z,92.68
2022-09-13T01:31:23.343Z,92.79
2022-09-13T01:32:23.342Z,92.48
2022-09-13T01:33:23.266Z,92.32
2022-09-13T01:34:23.255Z,92.63
2022-09-13T01:35:23.249Z,92.63
2022-09-13T01:36:23.240Z,93.03
2022-09-13T01:37:23.244Z,93.03
2022-09-13T01:38:23.243Z,93.54
2022-09-13T01:39:23.220Z,92.93
2022-09-13T01:40:23.240Z,93.23
2022-09-13T01:41:23.199Z,93.74
2022-09-13T01:42:23.180Z,93.43
2022-09-13T01:43:23.179Z,94.14
2022-09-13T01:44:23.153Z,94.24
2022-09-13T01:45:23.228Z,94.24
2022-09-13T01:46:23.126Z,94.65
2022-09-13T01:47:23.140Z,94.85
2022-09-13T01:48:23.127Z,95.06
2022-09-13T01:49:23.131Z,95.15
2022-09-13T01:50:23.100Z,94.75
2022-09-13T01:51:23.119Z,94.35
2022-09-13T01:52:23.072Z,94.95
2022-09-13T01:53:23.064Z,95.56
2022-09-13T01:54:23.069Z,95.15
2022-09-13T01:55:23.061Z,94.85
2022-09-13T01:56:23.016Z,94.95
2022-09-13T01:57:23.011Z,95.36
2022-09-13T01:58:23.004Z,95.26
2022-09-13T01:59:23.001Z,95.15
2022-09-13T02:00:23.022Z,95.26
2022-09-13T02:01:23.094Z,95.15
2022-09-13T02:02:23.002Z,95.66
2022-09-13T02:03:22.961Z,95.15
2022-09-13T02:04:22.928Z,94.95
2022-09-13T02:05:22.933Z,95.36
2022-09-13T02:06:22.931Z,95.26
2022-09-13T02:07:22.925Z,94.85
2022-09-13T02:08:22.892Z,95.42
2022-09-13T02:09:23.187Z,95.51
2022-09-13T02:10:22.881Z,95.42
2022-09-13T02:11:22.877Z,95.11
2022-09-13T02:12:22.908Z,95.51
2022-09-13T02:13:22.855Z,95.72
2022-09-13T02:14:22.856Z,95.62
2022-09-13T02:15:25.545Z,95.92
2022-09-13T02:16:22.851Z,96.12
2022-09-13T02:17:22.806Z,96.12
2022-09-13T02:18:22.796Z,95.92
2022-09-13T02:19:22.794Z,95.62
2022-09-13T02:20:22.778Z,95.92
2022-09-13T02:21:22.776Z,96.02
2022-09-13T02:22:22.750Z,96.12
2022-09-13T02:23:22.754Z,96.33
2022-09-13T02:24:22.760Z,95.92
2022-09-13T02:25:22.725Z,96.02
2022-09-13T02:26:22.711Z,96.12
2022-09-13T02:27:22.707Z,96.33
2022-09-13T02:28:22.682Z,96.22
2022-09-13T02:29:22.685Z,96.22
2022-09-13T02:30:22.675Z,96.22
2022-09-13T02:31:22.796Z,95.97
2022-09-13T02:32:22.640Z,95.76
2022-09-13T02:33:22.643Z,96.42
2022-09-13T02:34:22.626Z,96.57
2022-09-13T02:35:22.628Z,96.57
2022-09-13T02:36:22.614Z,96.27
2022-09-13T02:37:22.613Z,96.27
2022-09-13T02:38:22.579Z,96.27
2022-09-13T02:39:22.569Z,96.47
2022-09-13T02:40:22.595Z,96.88
2022-09-13T02:41:22.552Z,96.67
2022-09-13T02:42:22.573Z,96.78
2022-09-13T02:43:22.536Z,96.78
2022-09-13T02:44:22.525Z,97.08
2022-09-13T02:45:22.517Z,96.88
2022-09-13T02:46:22.484Z,97.08
2022-09-13T02:47:22.498Z,96.98
2022-09-13T02:48:22.483Z,97.08
2022-09-13T02:49:22.491Z,97.18
2022-09-13T02:50:22.454Z,97.28
2022-09-13T02:51:22.448Z,96.78
2022-09-13T02:52:22.448Z,97.08
2022-09-13T02:53:22.429Z,97.58
2022-09-13T02:54:22.425Z,97.18
2022-09-13T02:55:22.413Z,97.18
2022-09-13T02:56:22.377Z,97.38
2022-09-13T02:57:22.402Z,97.49
2022-09-13T02:58:26.873Z,97.38
2022-09-13T02:59:22.370Z,97.49
2022-09-13T03:00:22.342Z,97.69
2022-09-13T03:01:22.364Z,97.58
2022-09-13T03:02:22.356Z,97.38
2022-09-13T03:03:22.348Z,97.49
2022-09-13T03:04:22.304Z,97.38
2022-09-13T03:05:22.297Z,97.58
2022-09-13T03:06:22.290Z,97.79
2022-09-13T03:07:22.281Z,97.58
2022-09-13T03:08:22.279Z,97.58
2022-09-13T03:09:22.310Z,97.49
2022-09-13T03:10:22.245Z,97.18
2022-09-13T03:11:22.235Z,97.08
2022-09-13T03:12:22.229Z,97.49
2022-09-13T03:13:22.241Z,97.38
2022-09-13T03:14:22.210Z,97.28
2022-09-13T03:15:22.187Z,97.28
2022-09-13T03:16:22.219Z,97.53
2022-09-13T03:17:22.175Z,97.63
2022-09-13T03:18:22.157Z,97.73
2022-09-13T03:19:22.172Z,97.83
2022-09-13T03:20:22.141Z,97.63
2022-09-13T03:21:22.125Z,97.53
2022-09-13T03:22:22.123Z,97.43
2022-09-13T03:23:22.094Z,97.83
2022-09-13T03:24:22.131Z,97.94
2022-09-13T03:25:22.088Z,97.73
2022-09-13T03:26:22.078Z,97.73
2022-09-13T03:27:22.072Z,97.73
2022-09-13T03:28:22.059Z,97.94
2022-09-13T03:29:22.046Z,97.63
2022-09-13T03:30:22.086Z,97.73
2022-09-13T03:31:22.090Z,97.63
2022-09-13T03:32:22.023Z,97.43
2022-09-13T03:33:22.003Z,97.63
2022-09-13T03:34:22.006Z,97.63
2022-09-13T03:35:21.980Z,97.73
2022-09-13T03:36:21.978Z,97.53
2022-09-13T03:37:21.963Z,97.43
2022-09-13T03:38:21.949Z,97.83
2022-09-13T03:39:21.954Z,97.63
2022-09-13T03:40:22.034Z,97.23
2022-09-13T03:41:21.920Z,97.33
2022-09-13T03:42:21.911Z,97.63
2022-09-13T03:43:21.899Z,97.58
2022-09-13T03:44:21.895Z,97.38
2022-09-13T03:45:21.904Z,97.33
2022-09-13T03:46:21.875Z,97.58
2022-09-13T03:47:21.860Z,97.53
2022-09-13T03:48:21.857Z,97.23
2022-09-13T03:49:21.833Z,97.33
2022-09-13T03:50:21.824Z,97.13
2022-09-13T03:51:21.826Z,96.92
2022-09-13T03:52:21.844Z,97.38
2022-09-13T03:53:21.788Z,97.53
2022-09-13T03:54:21.782Z,97.38
2022-09-13T03:55:21.873Z,96.98
2022-09-13T03:56:21.770Z,96.98
2022-09-13T03:57:21.746Z,96.88
2022-09-13T03:58:21.735Z,97.58
2022-09-13T03:59:21.733Z,97.58
2022-09-13T04:00:21.721Z,97.38
2022-09-13T04:01:21.778Z,97.49
2022-09-13T04:02:21.737Z,97.79
2022-09-13T04:03:21.681Z,97.49
2022-09-13T04:04:21.683Z,97.18
2022-09-13T04:05:21.670Z,97.38
2022-09-13T04:06:21.673Z,97.38
2022-09-13T04:07:21.644Z,97.08
2022-09-13T04:08:21.637Z,96.88
2022-09-13T04:09:21.623Z,97.58
2022-09-13T04:10:21.631Z,97.58
2022-09-13T04:11:21.633Z,97.58
2022-09-13T04:12:21.627Z,97.08
2022-09-13T04:13:21.581Z,95.26
2022-09-13T04:14:21.579Z,94.65
2022-09-13T04:15:21.573Z,94.14
2022-09-13T04:16:21.662Z,95.06
2022-09-13T04:17:21.556Z,92.32
2022-09-13T04:18:21.527Z,92.52
2022-09-13T04:19:21.519Z,92.08
2022-09-13T04:20:21.510Z,92.18
2022-09-13T04:21:21.573Z,92.58
2022-09-13T04:22:21.494Z,93.19
2022-09-13T04:23:21.467Z,92.88
2022-09-13T04:24:21.475Z,92.58
2022-09-13T04:25:21.451Z,92.38
2022-09-13T04:26:21.446Z,91.67
2022-09-13T04:27:21.528Z,92.28
2022-09-13T04:28:21.425Z,93.90
2022-09-13T04:29:21.414Z,94.10
2022-09-13T04:30:21.403Z,93.49
2022-09-13T04:31:21.398Z,93.08
2022-09-13T04:32:21.391Z,93.29
2022-09-13T04:33:21.387Z,94.10
2022-09-13T04:34:21.367Z,94.50
2022-09-13T04:35:21.348Z,93.74
2022-09-13T04:36:21.347Z,93.54
2022-09-13T04:37:21.358Z,94.55
2022-09-13T04:38:21.339Z,94.85
2022-09-13T04:39:21.297Z,94.35
2022-09-13T04:40:21.328Z,95.15
2022-09-13T04:41:21.231Z,95.86
2022-09-13T04:42:21.283Z,95.66
2022-09-13T04:43:21.283Z,95.56
2022-09-13T04:44:21.218Z,95.56
2022-09-13T04:45:21.190Z,95.46
2022-09-13T04:46:21.289Z,95.36
2022-09-13T04:47:21.173Z,95.76
2022-09-13T04:48:21.191Z,95.66
2022-09-13T04:49:21.146Z,95.76
2022-09-13T04:50:21.137Z,95.97
2022-09-13T04:51:21.123Z,95.86
2022-09-13T04:52:21.126Z,95.76
2022-09-13T04:53:21.113Z,95.76
2022-09-13T04:54:21.117Z,96.27
2022-09-13T04:55:21.084Z,96.27
2022-09-13T04:56:21.092Z,96.37
2022-09-13T04:57:21.067Z,96.17
2022-09-13T04:58:21.070Z,95.97
2022-09-13T04:59:21.044Z,96.11
2022-09-13T05:00:21.036Z,96.51
2022-09-13T05:01:22.317Z,96.31
2022-09-13T05:02:21.135Z,96.51
2022-09-13T05:03:21.016Z,96.62
2022-09-13T05:04:21.000Z,96.92
2022-09-13T05:05:20.984Z,96.51
2022-09-13T05:06:20.976Z,96.01
2022-09-13T05:07:21.017Z,96.01
2022-09-13T05:08:20.949Z,96.72
2022-09-13T05:09:20.961Z,96.72
2022-09-13T05:10:20.941Z,96.62
2022-09-13T05:11:20.905Z,96.82
2022-09-13T05:12:20.925Z,96.92
2022-09-13T05:13:20.897Z,96.72
2022-09-13T05:14:20.912Z,96.22
2022-09-13T05:15:20.875Z,96.62
2022-09-13T05:16:20.891Z,96.51
2022-09-13T05:17:20.854Z,96.42
2022-09-13T05:18:20.847Z,97.33
2022-09-13T05:19:20.849Z,96.92
2022-09-13T05:20:20.827Z,96.62
2022-09-13T05:21:20.818Z,96.72
2022-09-13T05:22:20.808Z,96.72
2022-09-13T05:23:20.795Z,97.23
2022-09-13T05:24:20.832Z,97.53
2022-09-13T05:25:25.436Z,97.43
2022-09-13T05:26:20.766Z,97.13
2022-09-13T05:27:20.755Z,97.02
2022-09-13T05:28:20.747Z,96.82
2022-09-13T05:29:20.730Z,96.51
2022-09-13T05:30:20.743Z,97.08
2022-09-13T05:31:20.748Z,96.98
2022-09-13T05:32:20.709Z,96.57
2022-09-13T05:33:20.692Z,96.78
2022-09-13T05:34:20.704Z,96.98
2022-09-13T05:35:20.686Z,97.18
2022-09-13T05:36:20.670Z,97.08
2022-09-13T05:37:20.642Z,96.78
2022-09-13T05:38:20.643Z,96.57
2022-09-13T05:39:31.756Z,96.67
2022-09-13T05:40:20.712Z,96.88
2022-09-13T05:41:20.601Z,96.57
2022-09-13T05:42:20.600Z,96.17
2022-09-13T05:43:20.576Z,95.36
2022-09-13T05:44:20.575Z,95.46
2022-09-13T05:45:20.587Z,94.95
2022-09-13T05:46:20.600Z,94.55
2022-09-13T05:47:20.534Z,94.30
2022-09-13T05:48:20.537Z,95.01
2022-09-13T05:49:20.518Z,95.82
2022-09-13T05:50:52.771Z,96.02
2022-09-13T05:51:20.500Z,95.92
2022-09-13T05:52:20.500Z,96.12
2022-09-13T05:53:20.474Z,95.82
2022-09-13T05:54:20.483Z,96.12
2022-09-13T05:55:20.465Z,94.81
2022-09-13T05:56:20.453Z,96.28
2022-09-13T05:57:20.452Z,95.67
2022-09-13T05:58:20.429Z,95.98
2022-09-13T05:59:20.408Z,95.07
2022-09-13T06:00:20.425Z,94.76
2022-09-13T06:01:20.468Z,94.46
2022-09-13T06:02:20.422Z,95.07
2022-09-13T06:03:20.358Z,95.17
2022-09-13T06:04:20.372Z,94.26
2022-09-13T06:05:20.380Z,94.36
2022-09-13T06:06:20.355Z,94.21
2022-09-13T06:07:20.321Z,94.62
2022-09-13T06:08:20.326Z,92.80
2022-09-13T06:09:20.317Z,92.29
2022-09-13T06:10:20.332Z,94.01
2022-09-13T06:11:20.290Z,93.00
2022-09-13T06:12:20.284Z,92.80
2022-09-13T06:13:20.265Z,92.60
2022-09-13T06:14:20.256Z,89.76
2022-09-13T06:15:20.242Z,89.76
2022-09-13T06:16:20.362Z,89.76
2022-09-13T06:17:20.222Z,89.83
2022-09-13T06:18:20.220Z,90.03
2022-09-13T06:19:20.193Z,89.32
2022-09-13T06:20:20.303Z,89.42
2022-09-13T06:21:20.176Z,89.12
2022-09-13T06:22:20.218Z,88.41
2022-09-13T06:23:20.152Z,88.97
2022-09-13T06:24:20.161Z,89.68
2022-09-13T06:25:20.146Z,88.77
2022-09-13T06:26:20.148Z,88.57
2022-09-13T06:27:20.125Z,89.68
2022-09-13T06:28:21.265Z,89.84
2022-09-13T06:29:20.097Z,87.32
2022-09-13T06:30:20.091Z,86.41
2022-09-13T06:31:20.176Z,87.58
2022-09-13T06:32:20.079Z,87.07
2022-09-13T06:33:20.081Z,87.18
2022-09-13T06:34:20.041Z,86.83
2022-09-13T06:35:20.029Z,85.72
2022-09-13T06:36:20.041Z,85.92
2022-09-13T06:37:20.023Z,85.62
2022-09-13T06:38:20.026Z,84.67
2022-09-13T06:39:20.037Z,84.57
2022-09-13T06:40:24.986Z,84.47
2022-09-13T06:41:20.005Z,84.67
2022-09-13T06:42:19.954Z,84.83
2022-09-13T06:43:19.946Z,86.24
2022-09-13T06:44:19.957Z,84.94
2022-09-13T06:45:19.929Z,85.44
2022-09-13T06:46:24.662Z,83.12
2022-09-13T06:47:19.919Z,85.03
2022-09-13T06:48:19.908Z,84.53
2022-09-13T06:49:19.889Z,83.62
2022-09-13T06:50:19.877Z,85.34
2022-09-13T06:51:19.883Z,83.02
2022-09-13T06:52:19.868Z,82.31
2022-09-13T06:53:19.853Z,82.82
2022-09-13T06:54:19.846Z,82.51
2022-09-13T06:55:19.821Z,81.91
2022-09-13T06:56:19.846Z,82.88
2022-09-13T06:57:19.841Z,82.48
2022-09-13T06:58:19.792Z,81.63
2022-09-13T06:59:19.813Z,81.33
2022-09-13T07:00:19.782Z,81.03
2022-09-13T07:01:19.981Z,81.43
2022-09-13T07:02:19.817Z,81.23
2022-09-13T07:03:19.746Z,81.73
2022-09-13T07:04:19.751Z,80.99
2022-09-13T07:05:19.738Z,81.09
2022-09-13T07:06:22.392Z,81.09
2022-09-13T07:07:19.718Z,79.99
2022-09-13T07:08:19.703Z,80.69
2022-09-13T07:09:19.695Z,80.29
2022-09-13T07:10:19.685Z,81.39
2022-09-13T07:11:19.659Z,78.88
2022-09-13T07:12:20.715Z,80.79
2022-09-13T07:13:19.646Z,79.58
2022-09-13T07:14:19.631Z,79.99
2022-09-13T07:15:19.620Z,80.29
2022-09-13T07:16:19.635Z,79.99
2022-09-13T07:17:19.615Z,79.38
2022-09-13T07:18:19.596Z,79.08
2022-09-13T07:19:19.567Z,79.35
2022-09-13T07:20:19.581Z,79.04
2022-09-13T07:21:19.565Z,78.03
2022-09-13T07:22:19.572Z,78.84
2022-09-13T07:23:19.535Z,78.23
2022-09-13T07:24:19.552Z,78.94
2022-09-13T07:25:19.530Z,78.30
2022-09-13T07:26:19.501Z,78.30
2022-09-13T07:27:19.529Z,78.40
2022-09-13T07:28:22.228Z,78.66
2022-09-13T07:29:19.479Z,78.46
2022-09-13T07:30:19.497Z,77.76
2022-09-13T07:31:19.496Z,79.97
2022-09-13T07:32:19.476Z,78.66
2022-09-13T07:33:19.445Z,78.86
2022-09-13T07:34:19.417Z,78.33
2022-09-13T07:35:19.419Z,77.02
2022-09-13T07:36:19.396Z,76.82
2022-09-13T07:37:19.389Z,76.02
2022-09-13T07:38:19.395Z,76.62
2022-09-13T07:39:22.760Z,76.02
2022-09-13T07:40:19.405Z,77.39
2022-09-13T07:41:19.345Z,75.18
2022-09-13T07:42:19.346Z,75.98
2022-09-13T07:43:19.357Z,74.91
2022-09-13T07:44:19.302Z,74.91
2022-09-13T07:45:19.298Z,75.42
2022-09-13T07:46:19.319Z,76.12
2022-09-13T07:47:19.284Z,75.55
2022-09-13T07:48:19.291Z,77.92
2022-09-13T07:49:19.264Z,77.72
2022-09-13T07:50:19.239Z,78.22
2022-09-13T07:51:19.248Z,77.42
2022-09-13T07:52:19.221Z,77.22
2022-09-13T07:53:19.261Z,76.82
2022-09-13T07:54:19.219Z,77.12
2022-09-13T07:55:19.198Z,76.21
2022-09-13T07:56:19.183Z,77.02
2022-09-13T07:57:19.184Z,77.12
2022-09-13T07:58:19.214Z,75.92
2022-09-13T07:59:19.215Z,76.21
2022-09-13T08:00:19.140Z,77.12
2022-09-13T08:01:19.162Z,77.62
2022-09-13T08:02:19.190Z,77.83
2022-09-13T08:03:19.131Z,77.46
2022-09-13T08:04:19.178Z,77.56
2022-09-13T08:05:19.092Z,77.76
2022-09-13T08:06:19.076Z,77.02
2022-09-13T08:07:19.085Z,78.53
2022-09-13T08:08:19.061Z,77.83
2022-09-13T08:09:19.064Z,77.02
2022-09-13T08:10:19.036Z,77.62
2022-09-13T08:11:19.058Z,77.83
2022-09-13T08:12:19.011Z,77.42
2022-09-13T08:13:19.023Z,77.32
2022-09-13T08:14:18.993Z,76.89
2022-09-13T08:15:18.996Z,76.58
2022-09-13T08:16:18.995Z,76.02
2022-09-13T08:17:18.962Z,76.72
2022-09-13T08:18:18.965Z,76.02
2022-09-13T08:19:18.956Z,76.82
2022-09-13T08:20:18.922Z,76.72
2022-09-13T08:21:18.931Z,77.52
2022-09-13T08:22:18.908Z,77.99
2022-09-13T08:23:18.936Z,77.48
2022-09-13T08:24:18.901Z,76.98
2022-09-13T08:25:18.889Z,77.59
2022-09-13T08:26:18.878Z,77.28
2022-09-13T08:27:18.867Z,75.78
2022-09-13T08:28:18.848Z,76.08
2022-09-13T08:29:18.867Z,75.45
2022-09-13T08:30:18.839Z,76.04
2022-09-13T08:31:18.855Z,76.45
2022-09-13T08:32:18.807Z,75.34
2022-09-13T08:33:18.875Z,75.14
2022-09-13T08:34:18.780Z,75.64
2022-09-13T08:35:18.858Z,75.64
2022-09-13T08:36:18.762Z,75.64
2022-09-13T08:37:18.764Z,75.54
2022-09-13T08:38:18.752Z,75.74
2022-09-13T08:39:18.780Z,75.74
2022-09-13T08:40:18.844Z,76.34
2022-09-13T08:41:18.727Z,76.15
2022-09-13T08:42:18.701Z,75.74
2022-09-13T08:43:18.704Z,75.74
2022-09-13T08:44:18.683Z,75.45
2022-09-13T08:45:18.694Z,75.21
2022-09-13T08:46:18.756Z,75.71
2022-09-13T08:47:18.669Z,75.31
2022-09-13T08:48:18.657Z,75.67
2022-09-13T08:49:18.658Z,74.47
2022-09-13T08:50:18.798Z,74.27
2022-09-13T08:51:18.631Z,74.27
2022-09-13T08:52:18.598Z,74.57
2022-09-13T08:53:18.604Z,73.93
2022-09-13T08:54:18.619Z,74.13
2022-09-13T08:55:18.579Z,73.77
2022-09-13T08:56:18.558Z,74.27
2022-09-13T08:57:18.577Z,73.86
2022-09-13T08:58:18.536Z,73.97
2022-09-13T08:59:18.541Z,73.53
2022-09-13T09:00:20.796Z,73.63
2022-09-13T09:01:18.535Z,73.70
2022-09-13T09:02:18.586Z,74.30
2022-09-13T09:03:18.493Z,74.10
2022-09-13T09:04:18.495Z,73.66
2022-09-13T09:05:18.483Z,74.16
2022-09-13T09:06:18.464Z,72.16
2022-09-13T09:07:18.472Z,72.66
2022-09-13T09:08:18.437Z,73.16
2022-09-13T09:09:18.425Z,72.86
2022-09-13T09:10:18.492Z,72.56
2022-09-13T09:11:18.422Z,72.76
2022-09-13T09:12:18.402Z,73.16
2022-09-13T09:13:21.546Z,72.72
2022-09-13T09:14:18.379Z,73.83
2022-09-13T09:15:18.372Z,72.59
2022-09-13T09:16:18.429Z,72.69
2022-09-13T09:17:18.346Z,72.79
2022-09-13T09:18:18.351Z,73.16
2022-09-13T09:19:18.347Z,72.72
2022-09-13T09:20:18.315Z,71.56
2022-09-13T09:21:18.306Z,71.46
2022-09-13T09:22:18.292Z,72.82
2022-09-13T09:23:21.321Z,71.46
2022-09-13T09:24:18.277Z,71.62
2022-09-13T09:25:18.286Z,71.86
2022-09-13T09:26:18.263Z,71.56
2022-09-13T09:27:18.255Z,71.83
2022-09-13T09:28:18.231Z,71.16
2022-09-13T09:29:22.915Z,70.83
2022-09-13T09:30:18.216Z,71.03
2022-09-13T09:31:18.265Z,73.36
2022-09-13T09:32:18.179Z,73.75
2022-09-13T09:33:18.179Z,73.56
2022-09-13T09:34:18.184Z,72.26
2022-09-13T09:35:18.174Z,72.86
2022-09-13T09:36:18.141Z,73.42
2022-09-13T09:37:18.138Z,71.56
2022-09-13T09:38:18.127Z,72.76
2022-09-13T09:39:18.161Z,72.56
2022-09-13T09:40:18.215Z,72.56
2022-09-13T09:41:18.100Z,72.09
2022-09-13T09:42:18.082Z,73.36
2022-09-13T09:43:18.090Z,73.22
2022-09-13T09:44:18.069Z,73.32
2022-09-13T09:45:18.058Z,73.22
2022-09-13T09:46:18.122Z,71.09
2022-09-13T09:47:18.034Z,71.59
2022-09-13T09:48:18.023Z,72.09
2022-09-13T09:49:18.034Z,70.79
2022-09-13T09:50:18.001Z,71.19
2022-09-13T09:51:18.004Z,72.09
2022-09-13T09:52:17.974Z,72.89
2022-09-13T09:53:17.961Z,71.56
2022-09-13T09:54:17.980Z,72.49
2022-09-13T09:55:18.004Z,72.55
2022-09-13T09:56:17.942Z,72.25
2022-09-13T09:57:17.932Z,71.09
2022-09-13T09:58:17.924Z,71.89
2022-09-13T09:59:17.982Z,71.83
2022-09-13T10:00:17.894Z,72.32
2022-09-13T10:01:17.927Z,73.16
2022-09-13T10:02:17.968Z,73.46
2022-09-13T10:03:17.865Z,73.96
2022-09-13T10:04:17.851Z,73.46
2022-09-13T10:05:17.863Z,73.36
2022-09-13T10:06:17.829Z,74.46
2022-09-13T10:07:17.830Z,73.86
2022-09-13T10:08:17.831Z,74.66
2022-09-13T10:09:17.822Z,74.49
2022-09-13T10:10:17.791Z,75.52
2022-09-13T10:11:17.787Z,75.73
2022-09-13T10:12:17.764Z,75.49
2022-09-13T10:13:17.773Z,75.79
2022-09-13T10:14:17.746Z,74.49
2022-09-13T10:15:17.762Z,75.09
2022-09-13T10:16:17.759Z,74.76
2022-09-13T10:17:17.725Z,74.49
2022-09-13T10:18:42.187Z,74.76
2022-09-13T10:19:17.705Z,74.66
2022-09-13T10:20:17.702Z,75.12
2022-09-13T10:21:17.676Z,74.52
2022-09-13T10:22:17.674Z,73.52
2022-09-13T10:23:17.674Z,73.28
2022-09-13T10:24:17.638Z,73.55
2022-09-13T10:25:17.744Z,71.45
2022-09-13T10:26:17.616Z,71.52
2022-09-13T10:27:17.613Z,73.22
2022-09-13T10:28:17.599Z,70.32
2022-09-13T10:29:17.782Z,70.53
2022-09-13T10:30:17.579Z,71.15
2022-09-13T10:31:17.883Z,68.13
2022-09-13T10:32:17.547Z,68.13
2022-09-13T10:33:17.546Z,68.23
2022-09-13T10:34:17.539Z,67.63
2022-09-13T10:35:17.542Z,67.73
2022-09-13T10:36:25.122Z,69.02
2022-09-13T10:37:17.542Z,68.70
2022-09-13T10:38:17.543Z,67.83
2022-09-13T10:39:17.498Z,68.96
2022-09-13T10:40:17.502Z,69.39
2022-09-13T10:41:17.507Z,70.16
2022-09-13T10:42:17.456Z,71.56
2022-09-13T10:43:17.462Z,71.89
2022-09-13T10:44:17.443Z,71.99
2022-09-13T10:45:17.436Z,72.09
2022-09-13T10:46:17.474Z,71.86
2022-09-13T10:47:17.433Z,71.69
2022-09-13T10:48:17.404Z,69.49
2022-09-13T10:49:17.406Z,67.00
2022-09-13T10:50:17.375Z,67.54
2022-09-13T10:51:17.390Z,68.37
2022-09-13T10:52:17.409Z,68.37
2022-09-13T10:53:17.358Z,69.26
2022-09-13T10:54:17.348Z,70.86
2022-09-13T10:55:17.339Z,69.09
2022-09-13T10:56:17.320Z,70.49
2022-09-13T10:57:17.336Z,70.53
2022-09-13T10:58:17.297Z,70.29
2022-09-13T10:59:17.307Z,71.92
2022-09-13T11:00:17.293Z,72.86
2022-09-13T11:01:17.374Z,73.25
2022-09-13T11:02:17.322Z,73.99
2022-09-13T11:03:17.267Z,74.39
2022-09-13T11:04:17.267Z,75.13
2022-09-13T11:05:17.249Z,75.63
2022-09-13T11:06:17.223Z,76.23
2022-09-13T11:07:17.228Z,75.33
2022-09-13T11:08:17.214Z,75.63
2022-09-13T11:09:17.205Z,75.43
2022-09-13T11:10:17.183Z,75.49
2022-09-13T11:11:17.186Z,74.29
2022-09-13T11:12:17.183Z,74.09
2022-09-13T11:13:17.157Z,73.89
2022-09-13T11:14:17.138Z,74.49
2022-09-13T11:15:17.145Z,74.09
2022-09-13T11:16:17.161Z,75.29
2022-09-13T11:17:17.123Z,74.39
2022-09-13T11:18:17.127Z,74.09
2022-09-13T11:19:17.093Z,74.29
2022-09-13T11:20:17.072Z,74.69
2022-09-13T11:21:17.092Z,74.59
2022-09-13T11:22:17.057Z,74.13
2022-09-13T11:23:17.058Z,75.33
2022-09-13T11:24:17.063Z,75.73
2022-09-13T11:25:17.029Z,75.33
2022-09-13T11:26:17.083Z,74.33
2022-09-13T11:27:17.010Z,74.39
2022-09-13T11:28:16.990Z,75.09
2022-09-13T11:29:17.000Z,74.66
2022-09-13T11:30:16.992Z,73.75
2022-09-13T11:31:17.146Z,73.75
2022-09-13T11:32:16.944Z,73.56
2022-09-13T11:33:16.958Z,73.86
2022-09-13T11:34:16.930Z,73.66
2022-09-13T11:35:16.923Z,73.16
2022-09-13T11:36:16.913Z,73.86
2022-09-13T11:37:16.907Z,73.56
2022-09-13T11:38:16.908Z,73.66
2022-09-13T11:39:16.890Z,72.99
2022-09-13T11:40:16.893Z,73.59
2022-09-13T11:41:16.903Z,73.69
2022-09-13T11:42:16.858Z,73.19
2022-09-13T11:43:16.830Z,73.99
2022-09-13T11:44:16.826Z,73.19
2022-09-13T11:45:20.853Z,73.16
2022-09-13T11:46:16.895Z,72.72
2022-09-13T11:47:16.827Z,71.52
2022-09-13T11:48:16.780Z,70.79
2022-09-13T11:49:16.764Z,69.76
2022-09-13T11:50:16.778Z,70.62
2022-09-13T11:51:16.753Z,69.76
2022-09-13T11:52:16.769Z,67.96
2022-09-13T11:53:16.764Z,68.00
2022-09-13T11:54:16.751Z,68.60
2022-09-13T11:55:16.721Z,69.02
2022-09-13T11:56:16.697Z,68.83
2022-09-13T11:57:16.701Z,69.56
2022-09-13T11:58:16.692Z,69.66
2022-09-13T11:59:16.681Z,69.29
2022-09-13T12:00:16.684Z,69.73
2022-09-13T12:01:16.646Z,70.92
2022-09-13T12:02:16.818Z,70.23
2022-09-13T12:03:16.712Z,70.96
2022-09-13T12:04:16.649Z,72.42
2022-09-13T12:05:24.380Z,72.62
2022-09-13T12:06:16.623Z,71.12
2022-09-13T12:07:16.587Z,70.23
2022-09-13T12:08:16.594Z,70.03
2022-09-13T12:09:16.599Z,69.93
2022-09-13T12:10:16.569Z,70.99
2022-09-13T12:11:16.634Z,70.19
2022-09-13T12:12:16.548Z,69.56
2022-09-13T12:13:16.522Z,69.66
2022-09-13T12:14:16.568Z,69.66
2022-09-13T12:15:16.560Z,67.43
2022-09-13T12:16:16.633Z,64.18
2022-09-13T12:17:16.497Z,63.29
2022-09-13T12:18:16.485Z,63.60
2022-09-13T12:19:16.472Z,61.72
2022-09-13T12:20:16.512Z,59.97
2022-09-13T12:21:16.472Z,59.52
2022-09-13T12:22:16.445Z,57.31
2022-09-13T12:23:16.492Z,54.86
2022-09-13T12:24:16.415Z,55.43
2022-09-13T12:25:16.419Z,53.12
2022-09-13T12:26:16.499Z,52.11
2022-09-13T12:27:16.451Z,53.69
2022-09-13T12:28:16.377Z,54.71
2022-09-13T12:29:16.381Z,52.88
2022-09-13T12:30:16.362Z,54.81
2022-09-13T12:31:16.354Z,55.26
2022-09-13T12:32:16.337Z,56.57
2022-09-13T12:33:16.334Z,56.80
2022-09-13T12:34:16.318Z,57.20
2022-09-13T12:35:16.328Z,59.28
2022-09-13T12:36:16.323Z,58.39
2022-09-13T12:37:16.338Z,55.39
2022-09-13T12:38:16.294Z,56.38
2022-09-13T12:39:16.283Z,56.72
2022-09-13T12:40:16.289Z,54.66
2022-09-13T12:41:16.253Z,51.82
2022-09-13T12:42:16.261Z,50.02
2022-09-13T12:43:16.228Z,51.64
2022-09-13T12:44:16.208Z,54.12
2022-09-13T12:45:16.202Z,58.20
2022-09-13T12:46:18.494Z,57.17
2022-09-13T12:47:16.186Z,57.23
2022-09-13T12:48:16.191Z,57.98
2022-09-13T12:49:16.155Z,60.36
2022-09-13T12:51:16.325Z,60.91
2022-09-13T12:52:16.150Z,61.14
2022-09-13T12:53:16.126Z,61.37